sensor_id;sensor_type;location;lat;lon;timestamp;P1;durP1;ratioP1;P2;durP2;ratioP2
61477;SDS011;47345;52.334;10.392;2024-02-16T00:00:55;5.50;;;3.80;;
61477;SDS011;47345;52.334;10.392;2024-02-16T00:03:26;6.50;;;4.00;;
61477;SDS011;47345;52.334;10.392;2024-02-16T00:05:56;8.00;;;4.20;;
61477;SDS011;47345;52.334;10.392;2024-02-16T00:08:27;8.40;;;3.90;;
61477;SDS011;47345;52.334;10.392;2024-02-16T00:10:58;9.50;;;4.00;;
61477;SDS011;47345;52.334;10.392;2024-02-16T00:13:28;5.60;;;3.70;;
61477;SDS011;47345;52.334;10.392;2024-02-16T00:15:58;4.80;;;3.40;;
61477;SDS011;47345;52.334;10.392;2024-02-16T00:18:29;10.80;;;3.90;;
61477;SDS011;47345;52.334;10.392;2024-02-16T00:21:00;5.20;;;3.70;;
61477;SDS011;47345;52.334;10.392;2024-02-16T00:23:30;4.70;;;3.60;;
61477;SDS011;47345;52.334;10.392;2024-02-16T00:26:02;6.50;;;3.70;;
61477;SDS011;47345;52.334;10.392;2024-02-16T00:28:34;7.80;;;3.90;;
61477;SDS011;47345;52.334;10.392;2024-02-16T00:31:05;4.80;;;3.80;;
61477;SDS011;47345;52.334;10.392;2024-02-16T00:33:36;5.00;;;3.70;;
61477;SDS011;47345;52.334;10.392;2024-02-16T00:36:07;6.40;;;3.90;;
61477;SDS011;47345;52.334;10.392;2024-02-16T00:38:38;5.00;;;3.80;;
61477;SDS011;47345;52.334;10.392;2024-02-16T00:41:08;8.80;;;3.80;;
61477;SDS011;47345;52.334;10.392;2024-02-16T00:43:47;5.80;;;3.60;;
61477;SDS011;47345;52.334;10.392;2024-02-16T00:46:18;5.90;;;3.40;;
61477;SDS011;47345;52.334;10.392;2024-02-16T00:48:51;5.40;;;3.40;;
61477;SDS011;47345;52.334;10.392;2024-02-16T00:51:22;5.90;;;3.90;;
61477;SDS011;47345;52.334;10.392;2024-02-16T00:53:54;7.10;;;3.90;;
61477;SDS011;47345;52.334;10.392;2024-02-16T00:56:25;6.30;;;3.40;;
61477;SDS011;47345;52.334;10.392;2024-02-16T00:58:55;4.60;;;3.30;;
61477;SDS011;47345;52.334;10.392;2024-02-16T01:01:25;6.10;;;3.50;;
61477;SDS011;47345;52.334;10.392;2024-02-16T01:03:56;4.80;;;3.10;;
61477;SDS011;47345;52.334;10.392;2024-02-16T01:06:26;7.60;;;3.50;;
61477;SDS011;47345;52.334;10.392;2024-02-16T01:08:57;5.30;;;3.50;;
61477;SDS011;47345;52.334;10.392;2024-02-16T01:11:28;6.90;;;3.40;;
61477;SDS011;47345;52.334;10.392;2024-02-16T01:13:58;4.70;;;3.50;;
61477;SDS011;47345;52.334;10.392;2024-02-16T01:16:29;5.00;;;3.60;;
61477;SDS011;47345;52.334;10.392;2024-02-16T01:18:59;8.50;;;3.70;;
61477;SDS011;47345;52.334;10.392;2024-02-16T01:21:30;5.40;;;3.20;;
61477;SDS011;47345;52.334;10.392;2024-02-16T01:24:00;8.00;;;3.30;;
61477;SDS011;47345;52.334;10.392;2024-02-16T01:26:31;9.50;;;3.30;;
61477;SDS011;47345;52.334;10.392;2024-02-16T01:29:01;5.30;;;3.30;;
61477;SDS011;47345;52.334;10.392;2024-02-16T01:31:33;6.10;;;3.30;;
61477;SDS011;47345;52.334;10.392;2024-02-16T01:34:04;4.70;;;3.30;;
61477;SDS011;47345;52.334;10.392;2024-02-16T01:36:35;4.80;;;3.40;;
61477;SDS011;47345;52.334;10.392;2024-02-16T01:39:06;3.60;;;2.80;;
61477;SDS011;47345;52.334;10.392;2024-02-16T01:41:39;6.30;;;3.70;;
61477;SDS011;47345;52.334;10.392;2024-02-16T01:44:09;4.90;;;3.40;;
61477;SDS011;47345;52.334;10.392;2024-02-16T01:46:40;7.70;;;3.40;;
61477;SDS011;47345;52.334;10.392;2024-02-16T01:49:11;4.00;;;3.00;;
61477;SDS011;47345;52.334;10.392;2024-02-16T01:51:43;5.10;;;2.90;;
61477;SDS011;47345;52.334;10.392;2024-02-16T01:54:14;4.30;;;3.00;;
61477;SDS011;47345;52.334;10.392;2024-02-16T01:56:46;6.20;;;3.30;;
61477;SDS011;47345;52.334;10.392;2024-02-16T01:59:18;6.80;;;3.30;;
61477;SDS011;47345;52.334;10.392;2024-02-16T02:01:49;4.50;;;2.80;;
61477;SDS011;47345;52.334;10.392;2024-02-16T02:04:19;4.00;;;2.60;;
61477;SDS011;47345;52.334;10.392;2024-02-16T02:06:50;4.00;;;2.80;;
61477;SDS011;47345;52.334;10.392;2024-02-16T02:09:21;5.30;;;3.00;;
61477;SDS011;47345;52.334;10.392;2024-02-16T02:11:51;3.70;;;2.80;;
61477;SDS011;47345;52.334;10.392;2024-02-16T02:14:22;5.20;;;2.80;;
61477;SDS011;47345;52.334;10.392;2024-02-16T02:16:53;3.30;;;3.00;;
61477;SDS011;47345;52.334;10.392;2024-02-16T02:19:26;5.40;;;3.00;;
61477;SDS011;47345;52.334;10.392;2024-02-16T02:21:57;7.20;;;3.10;;
61477;SDS011;47345;52.334;10.392;2024-02-16T02:24:28;3.80;;;3.10;;
61477;SDS011;47345;52.334;10.392;2024-02-16T02:26:59;6.10;;;3.10;;
61477;SDS011;47345;52.334;10.392;2024-02-16T02:29:30;8.60;;;3.10;;
61477;SDS011;47345;52.334;10.392;2024-02-16T02:32:01;6.50;;;3.10;;
61477;SDS011;47345;52.334;10.392;2024-02-16T02:34:32;6.30;;;3.20;;
61477;SDS011;47345;52.334;10.392;2024-02-16T02:37:04;3.70;;;3.10;;
61477;SDS011;47345;52.334;10.392;2024-02-16T02:39:35;5.70;;;3.30;;
61477;SDS011;47345;52.334;10.392;2024-02-16T02:42:06;5.00;;;3.10;;
61477;SDS011;47345;52.334;10.392;2024-02-16T02:44:37;3.50;;;2.90;;
61477;SDS011;47345;52.334;10.392;2024-02-16T02:47:08;4.80;;;2.90;;
61477;SDS011;47345;52.334;10.392;2024-02-16T02:49:38;7.20;;;3.00;;
61477;SDS011;47345;52.334;10.392;2024-02-16T02:52:09;7.50;;;3.20;;
61477;SDS011;47345;52.334;10.392;2024-02-16T02:54:40;6.60;;;3.10;;
61477;SDS011;47345;52.334;10.392;2024-02-16T02:57:10;5.90;;;3.30;;
61477;SDS011;47345;52.334;10.392;2024-02-16T02:59:41;5.30;;;3.40;;
61477;SDS011;47345;52.334;10.392;2024-02-16T03:02:13;5.40;;;3.10;;
61477;SDS011;47345;52.334;10.392;2024-02-16T03:04:44;4.50;;;2.90;;
61477;SDS011;47345;52.334;10.392;2024-02-16T03:07:14;6.30;;;3.30;;
61477;SDS011;47345;52.334;10.392;2024-02-16T03:09:45;6.20;;;3.50;;
61477;SDS011;47345;52.334;10.392;2024-02-16T03:12:15;5.70;;;3.20;;
61477;SDS011;47345;52.334;10.392;2024-02-16T03:14:46;7.60;;;3.30;;
61477;SDS011;47345;52.334;10.392;2024-02-16T03:17:16;6.70;;;2.90;;
61477;SDS011;47345;52.334;10.392;2024-02-16T03:19:47;5.30;;;3.40;;
61477;SDS011;47345;52.334;10.392;2024-02-16T03:22:17;5.70;;;2.80;;
61477;SDS011;47345;52.334;10.392;2024-02-16T03:24:49;6.70;;;3.50;;
61477;SDS011;47345;52.334;10.392;2024-02-16T03:27:19;6.30;;;3.10;;
61477;SDS011;47345;52.334;10.392;2024-02-16T03:29:50;8.80;;;3.60;;
61477;SDS011;47345;52.334;10.392;2024-02-16T03:32:21;10.00;;;3.70;;
61477;SDS011;47345;52.334;10.392;2024-02-16T03:34:51;7.50;;;3.50;;
61477;SDS011;47345;52.334;10.392;2024-02-16T03:37:22;11.00;;;3.90;;
61477;SDS011;47345;52.334;10.392;2024-02-16T03:39:52;6.70;;;3.70;;
61477;SDS011;47345;52.334;10.392;2024-02-16T03:42:23;5.90;;;3.70;;
61477;SDS011;47345;52.334;10.392;2024-02-16T03:44:53;6.00;;;3.40;;
61477;SDS011;47345;52.334;10.392;2024-02-16T03:47:24;6.70;;;3.20;;
61477;SDS011;47345;52.334;10.392;2024-02-16T03:49:55;10.20;;;4.70;;
61477;SDS011;47345;52.334;10.392;2024-02-16T03:52:25;12.00;;;4.90;;
61477;SDS011;47345;52.334;10.392;2024-02-16T03:54:56;9.70;;;4.10;;
61477;SDS011;47345;52.334;10.392;2024-02-16T03:57:27;5.30;;;3.60;;
61477;SDS011;47345;52.334;10.392;2024-02-16T03:59:59;5.30;;;3.80;;
61477;SDS011;47345;52.334;10.392;2024-02-16T04:02:30;6.80;;;3.60;;
61477;SDS011;47345;52.334;10.392;2024-02-16T04:05:00;6.00;;;3.70;;
61477;SDS011;47345;52.334;10.392;2024-02-16T04:07:31;8.30;;;3.70;;
61477;SDS011;47345;52.334;10.392;2024-02-16T04:10:02;6.10;;;3.40;;
61477;SDS011;47345;52.334;10.392;2024-02-16T04:12:34;3.90;;;3.00;;
61477;SDS011;47345;52.334;10.392;2024-02-16T04:15:06;4.10;;;3.20;;
61477;SDS011;47345;52.334;10.392;2024-02-16T04:17:37;4.70;;;3.00;;
61477;SDS011;47345;52.334;10.392;2024-02-16T04:20:08;4.90;;;3.00;;
61477;SDS011;47345;52.334;10.392;2024-02-16T04:22:40;4.80;;;3.10;;
61477;SDS011;47345;52.334;10.392;2024-02-16T04:25:10;5.30;;;2.80;;
61477;SDS011;47345;52.334;10.392;2024-02-16T04:27:41;4.90;;;3.30;;
61477;SDS011;47345;52.334;10.392;2024-02-16T04:30:12;6.20;;;2.80;;
61477;SDS011;47345;52.334;10.392;2024-02-16T04:32:42;3.40;;;2.80;;
61477;SDS011;47345;52.334;10.392;2024-02-16T04:35:13;3.90;;;2.80;;
61477;SDS011;47345;52.334;10.392;2024-02-16T04:37:44;4.10;;;2.90;;
61477;SDS011;47345;52.334;10.392;2024-02-16T04:40:15;3.70;;;2.70;;
61477;SDS011;47345;52.334;10.392;2024-02-16T04:42:46;5.90;;;2.90;;
61477;SDS011;47345;52.334;10.392;2024-02-16T04:45:16;4.30;;;2.70;;
61477;SDS011;47345;52.334;10.392;2024-02-16T04:47:47;3.10;;;2.50;;
61477;SDS011;47345;52.334;10.392;2024-02-16T04:50:18;5.20;;;2.70;;
61477;SDS011;47345;52.334;10.392;2024-02-16T04:52:49;2.60;;;2.30;;
61477;SDS011;47345;52.334;10.392;2024-02-16T04:55:20;5.80;;;3.10;;
61477;SDS011;47345;52.334;10.392;2024-02-16T04:57:50;4.60;;;2.80;;
61477;SDS011;47345;52.334;10.392;2024-02-16T05:00:21;7.90;;;2.70;;
61477;SDS011;47345;52.334;10.392;2024-02-16T05:02:52;3.70;;;2.90;;
61477;SDS011;47345;52.334;10.392;2024-02-16T05:05:23;4.20;;;2.70;;
61477;SDS011;47345;52.334;10.392;2024-02-16T05:07:53;4.30;;;2.60;;
61477;SDS011;47345;52.334;10.392;2024-02-16T05:10:24;3.40;;;2.60;;
61477;SDS011;47345;52.334;10.392;2024-02-16T05:12:56;6.70;;;3.50;;
61477;SDS011;47345;52.334;10.392;2024-02-16T05:15:27;4.60;;;2.80;;
61477;SDS011;47345;52.334;10.392;2024-02-16T05:17:58;4.10;;;2.60;;
61477;SDS011;47345;52.334;10.392;2024-02-16T05:20:29;3.40;;;2.20;;
61477;SDS011;47345;52.334;10.392;2024-02-16T05:22:59;4.00;;;2.60;;
61477;SDS011;47345;52.334;10.392;2024-02-16T05:25:30;4.40;;;2.40;;
61477;SDS011;47345;52.334;10.392;2024-02-16T05:28:01;4.10;;;2.30;;
61477;SDS011;47345;52.334;10.392;2024-02-16T05:30:32;2.80;;;2.10;;
61477;SDS011;47345;52.334;10.392;2024-02-16T05:33:02;4.10;;;2.50;;
61477;SDS011;47345;52.334;10.392;2024-02-16T05:35:33;3.90;;;2.50;;
61477;SDS011;47345;52.334;10.392;2024-02-16T05:38:07;2.50;;;2.30;;
61477;SDS011;47345;52.334;10.392;2024-02-16T05:40:48;2.70;;;2.30;;
61477;SDS011;47345;52.334;10.392;2024-02-16T05:43:24;2.60;;;2.00;;
61477;SDS011;47345;52.334;10.392;2024-02-16T05:45:55;3.50;;;2.30;;
61477;SDS011;47345;52.334;10.392;2024-02-16T05:48:25;4.40;;;2.30;;
61477;SDS011;47345;52.334;10.392;2024-02-16T05:50:59;3.00;;;2.50;;
61477;SDS011;47345;52.334;10.392;2024-02-16T05:53:30;2.60;;;2.30;;
61477;SDS011;47345;52.334;10.392;2024-02-16T05:56:01;4.80;;;2.50;;
61477;SDS011;47345;52.334;10.392;2024-02-16T05:58:33;5.20;;;2.60;;
61477;SDS011;47345;52.334;10.392;2024-02-16T06:01:04;3.00;;;2.50;;
61477;SDS011;47345;52.334;10.392;2024-02-16T06:03:36;3.90;;;2.60;;
61477;SDS011;47345;52.334;10.392;2024-02-16T06:06:09;5.60;;;3.10;;
61477;SDS011;47345;52.334;10.392;2024-02-16T06:08:40;2.30;;;2.10;;
61477;SDS011;47345;52.334;10.392;2024-02-16T06:11:10;4.10;;;2.50;;
61477;SDS011;47345;52.334;10.392;2024-02-16T06:13:41;5.90;;;2.40;;
61477;SDS011;47345;52.334;10.392;2024-02-16T06:16:11;3.50;;;2.40;;
61477;SDS011;47345;52.334;10.392;2024-02-16T06:18:42;6.00;;;2.60;;
61477;SDS011;47345;52.334;10.392;2024-02-16T06:21:13;6.00;;;2.50;;
61477;SDS011;47345;52.334;10.392;2024-02-16T06:23:44;3.10;;;2.30;;
61477;SDS011;47345;52.334;10.392;2024-02-16T06:26:14;2.60;;;2.20;;
61477;SDS011;47345;52.334;10.392;2024-02-16T06:28:45;3.20;;;2.30;;
61477;SDS011;47345;52.334;10.392;2024-02-16T06:31:15;6.70;;;2.70;;
61477;SDS011;47345;52.334;10.392;2024-02-16T06:33:46;3.20;;;2.30;;
61477;SDS011;47345;52.334;10.392;2024-02-16T06:36:17;5.50;;;2.40;;
61477;SDS011;47345;52.334;10.392;2024-02-16T06:38:47;2.70;;;2.30;;
61477;SDS011;47345;52.334;10.392;2024-02-16T06:41:19;3.10;;;2.30;;
61477;SDS011;47345;52.334;10.392;2024-02-16T06:43:50;4.40;;;2.30;;
61477;SDS011;47345;52.334;10.392;2024-02-16T06:46:20;4.30;;;2.60;;
61477;SDS011;47345;52.334;10.392;2024-02-16T06:48:52;4.60;;;2.40;;
61477;SDS011;47345;52.334;10.392;2024-02-16T06:51:24;5.00;;;2.40;;
61477;SDS011;47345;52.334;10.392;2024-02-16T06:53:56;3.20;;;2.30;;
61477;SDS011;47345;52.334;10.392;2024-02-16T06:56:27;4.50;;;2.60;;
61477;SDS011;47345;52.334;10.392;2024-02-16T06:58:58;4.00;;;2.40;;
61477;SDS011;47345;52.334;10.392;2024-02-16T07:01:29;3.80;;;2.50;;
61477;SDS011;47345;52.334;10.392;2024-02-16T07:04:00;5.20;;;2.60;;
61477;SDS011;47345;52.334;10.392;2024-02-16T07:06:30;4.30;;;2.80;;
61477;SDS011;47345;52.334;10.392;2024-02-16T07:09:01;4.20;;;2.40;;
61477;SDS011;47345;52.334;10.392;2024-02-16T07:11:31;4.90;;;2.20;;
61477;SDS011;47345;52.334;10.392;2024-02-16T07:14:03;2.90;;;2.30;;
61477;SDS011;47345;52.334;10.392;2024-02-16T07:16:34;5.40;;;2.50;;
61477;SDS011;47345;52.334;10.392;2024-02-16T07:19:07;5.40;;;2.70;;
61477;SDS011;47345;52.334;10.392;2024-02-16T07:21:38;4.80;;;2.50;;
61477;SDS011;47345;52.334;10.392;2024-02-16T07:24:09;5.10;;;2.30;;
61477;SDS011;47345;52.334;10.392;2024-02-16T07:26:39;5.90;;;2.60;;
61477;SDS011;47345;52.334;10.392;2024-02-16T07:29:10;8.00;;;2.60;;
61477;SDS011;47345;52.334;10.392;2024-02-16T07:31:44;5.40;;;2.60;;
61477;SDS011;47345;52.334;10.392;2024-02-16T07:34:15;4.10;;;2.50;;
61477;SDS011;47345;52.334;10.392;2024-02-16T07:36:45;4.40;;;2.20;;
61477;SDS011;47345;52.334;10.392;2024-02-16T07:39:16;3.10;;;2.50;;
61477;SDS011;47345;52.334;10.392;2024-02-16T07:41:46;3.40;;;2.50;;
61477;SDS011;47345;52.334;10.392;2024-02-16T07:44:17;3.00;;;2.30;;
61477;SDS011;47345;52.334;10.392;2024-02-16T07:46:48;3.60;;;2.60;;
61477;SDS011;47345;52.334;10.392;2024-02-16T07:49:20;5.30;;;2.50;;
61477;SDS011;47345;52.334;10.392;2024-02-16T07:51:50;4.80;;;2.60;;
61477;SDS011;47345;52.334;10.392;2024-02-16T07:54:20;2.40;;;2.20;;
61477;SDS011;47345;52.334;10.392;2024-02-16T07:56:51;4.40;;;2.40;;
61477;SDS011;47345;52.334;10.392;2024-02-16T07:59:24;3.50;;;2.40;;
61477;SDS011;47345;52.334;10.392;2024-02-16T08:01:54;3.20;;;2.40;;
61477;SDS011;47345;52.334;10.392;2024-02-16T08:04:25;4.20;;;2.50;;
61477;SDS011;47345;52.334;10.392;2024-02-16T08:06:55;4.60;;;2.20;;
61477;SDS011;47345;52.334;10.392;2024-02-16T08:09:26;3.10;;;2.60;;
61477;SDS011;47345;52.334;10.392;2024-02-16T08:11:56;9.30;;;2.50;;
61477;SDS011;47345;52.334;10.392;2024-02-16T08:14:27;3.90;;;2.50;;
61477;SDS011;47345;52.334;10.392;2024-02-16T08:16:58;3.00;;;2.30;;
61477;SDS011;47345;52.334;10.392;2024-02-16T08:19:42;4.40;;;2.20;;
61477;SDS011;47345;52.334;10.392;2024-02-16T08:22:12;6.40;;;2.40;;
61477;SDS011;47345;52.334;10.392;2024-02-16T08:24:42;8.10;;;2.80;;
61477;SDS011;47345;52.334;10.392;2024-02-16T08:27:14;3.90;;;2.60;;
61477;SDS011;47345;52.334;10.392;2024-02-16T08:29:45;4.00;;;2.70;;
61477;SDS011;47345;52.334;10.392;2024-02-16T08:32:15;6.30;;;2.60;;
61477;SDS011;47345;52.334;10.392;2024-02-16T08:34:49;4.90;;;2.50;;
61477;SDS011;47345;52.334;10.392;2024-02-16T08:37:21;5.20;;;2.50;;
61477;SDS011;47345;52.334;10.392;2024-02-16T08:39:51;6.00;;;2.50;;
61477;SDS011;47345;52.334;10.392;2024-02-16T08:42:22;3.50;;;2.50;;
61477;SDS011;47345;52.334;10.392;2024-02-16T08:44:52;4.30;;;2.60;;
61477;SDS011;47345;52.334;10.392;2024-02-16T08:47:23;3.60;;;2.50;;
61477;SDS011;47345;52.334;10.392;2024-02-16T08:49:53;4.10;;;2.60;;
61477;SDS011;47345;52.334;10.392;2024-02-16T08:52:24;5.50;;;2.20;;
61477;SDS011;47345;52.334;10.392;2024-02-16T08:54:54;3.60;;;2.40;;
61477;SDS011;47345;52.334;10.392;2024-02-16T08:57:25;6.20;;;2.60;;
61477;SDS011;47345;52.334;10.392;2024-02-16T08:59:55;3.00;;;2.30;;
61477;SDS011;47345;52.334;10.392;2024-02-16T09:02:28;3.80;;;2.40;;
61477;SDS011;47345;52.334;10.392;2024-02-16T09:04:59;3.40;;;2.20;;
61477;SDS011;47345;52.334;10.392;2024-02-16T09:07:30;3.70;;;2.40;;
61477;SDS011;47345;52.334;10.392;2024-02-16T09:10:00;10.90;;;2.50;;
61477;SDS011;47345;52.334;10.392;2024-02-16T09:12:35;3.00;;;2.30;;
61477;SDS011;47345;52.334;10.392;2024-02-16T09:15:09;3.40;;;2.30;;
61477;SDS011;47345;52.334;10.392;2024-02-16T09:17:41;3.80;;;2.30;;
61477;SDS011;47345;52.334;10.392;2024-02-16T09:20:13;4.90;;;2.60;;
61477;SDS011;47345;52.334;10.392;2024-02-16T09:22:44;3.80;;;2.50;;
61477;SDS011;47345;52.334;10.392;2024-02-16T09:25:14;3.10;;;2.20;;
61477;SDS011;47345;52.334;10.392;2024-02-16T09:27:45;3.30;;;2.20;;
61477;SDS011;47345;52.334;10.392;2024-02-16T09:30:15;4.30;;;2.20;;
61477;SDS011;47345;52.334;10.392;2024-02-16T09:32:49;3.60;;;2.00;;
61477;SDS011;47345;52.334;10.392;2024-02-16T09:35:20;5.90;;;2.10;;
61477;SDS011;47345;52.334;10.392;2024-02-16T09:37:51;4.80;;;2.40;;
61477;SDS011;47345;52.334;10.392;2024-02-16T09:40:21;3.90;;;2.40;;
61477;SDS011;47345;52.334;10.392;2024-02-16T09:42:52;3.90;;;2.00;;
61477;SDS011;47345;52.334;10.392;2024-02-16T09:45:22;3.70;;;2.00;;
61477;SDS011;47345;52.334;10.392;2024-02-16T09:47:54;3.70;;;2.30;;
61477;SDS011;47345;52.334;10.392;2024-02-16T09:50:34;4.20;;;2.30;;
61477;SDS011;47345;52.334;10.392;2024-02-16T09:53:05;6.40;;;2.30;;
61477;SDS011;47345;52.334;10.392;2024-02-16T09:55:37;3.20;;;2.30;;
61477;SDS011;47345;52.334;10.392;2024-02-16T09:58:08;4.90;;;2.30;;
61477;SDS011;47345;52.334;10.392;2024-02-16T10:00:48;2.90;;;2.30;;
61477;SDS011;47345;52.334;10.392;2024-02-16T10:03:24;4.50;;;2.30;;
61477;SDS011;47345;52.334;10.392;2024-02-16T10:06:05;7.70;;;2.60;;
61477;SDS011;47345;52.334;10.392;2024-02-16T10:08:47;3.80;;;2.50;;
61477;SDS011;47345;52.334;10.392;2024-02-16T10:11:20;4.70;;;2.50;;
61477;SDS011;47345;52.334;10.392;2024-02-16T10:13:55;4.80;;;2.30;;
61477;SDS011;47345;52.334;10.392;2024-02-16T10:16:27;3.70;;;2.40;;
61477;SDS011;47345;52.334;10.392;2024-02-16T10:19:03;3.70;;;2.20;;
61477;SDS011;47345;52.334;10.392;2024-02-16T10:21:35;3.40;;;2.40;;
61477;SDS011;47345;52.334;10.392;2024-02-16T10:24:07;9.10;;;2.40;;
61477;SDS011;47345;52.334;10.392;2024-02-16T10:26:38;3.00;;;2.30;;
61477;SDS011;47345;52.334;10.392;2024-02-16T10:29:09;2.80;;;2.00;;
61477;SDS011;47345;52.334;10.392;2024-02-16T10:31:41;4.10;;;2.40;;
61477;SDS011;47345;52.334;10.392;2024-02-16T10:34:13;5.30;;;2.40;;
61477;SDS011;47345;52.334;10.392;2024-02-16T10:36:45;2.60;;;2.20;;
61477;SDS011;47345;52.334;10.392;2024-02-16T10:39:16;5.00;;;2.30;;
61477;SDS011;47345;52.334;10.392;2024-02-16T10:41:47;8.70;;;2.20;;
61477;SDS011;47345;52.334;10.392;2024-02-16T10:44:19;5.80;;;2.30;;
61477;SDS011;47345;52.334;10.392;2024-02-16T10:46:49;4.40;;;2.60;;
61477;SDS011;47345;52.334;10.392;2024-02-16T10:49:23;5.90;;;2.60;;
61477;SDS011;47345;52.334;10.392;2024-02-16T10:51:55;3.10;;;2.30;;
61477;SDS011;47345;52.334;10.392;2024-02-16T10:54:28;3.00;;;2.30;;
61477;SDS011;47345;52.334;10.392;2024-02-16T10:57:01;6.40;;;2.60;;
61477;SDS011;47345;52.334;10.392;2024-02-16T10:59:40;4.80;;;2.20;;
61477;SDS011;47345;52.334;10.392;2024-02-16T11:02:13;5.60;;;2.60;;
61477;SDS011;47345;52.334;10.392;2024-02-16T11:04:45;3.80;;;2.20;;
61477;SDS011;47345;52.334;10.392;2024-02-16T11:07:18;2.60;;;2.00;;
61477;SDS011;47345;52.334;10.392;2024-02-16T11:09:50;4.90;;;2.40;;
61477;SDS011;47345;52.334;10.392;2024-02-16T11:12:20;6.00;;;2.60;;
61477;SDS011;47345;52.334;10.392;2024-02-16T11:14:51;3.50;;;2.30;;
61477;SDS011;47345;52.334;10.392;2024-02-16T11:17:26;3.70;;;2.50;;
61477;SDS011;47345;52.334;10.392;2024-02-16T11:20:00;2.80;;;2.30;;
61477;SDS011;47345;52.334;10.392;2024-02-16T11:22:31;4.20;;;2.70;;
61477;SDS011;47345;52.334;10.392;2024-02-16T11:25:08;3.00;;;2.30;;
61477;SDS011;47345;52.334;10.392;2024-02-16T11:27:38;4.30;;;2.20;;
61477;SDS011;47345;52.334;10.392;2024-02-16T11:30:12;3.80;;;2.30;;
61477;SDS011;47345;52.334;10.392;2024-02-16T11:32:43;4.10;;;2.50;;
61477;SDS011;47345;52.334;10.392;2024-02-16T11:35:14;6.30;;;2.30;;
61477;SDS011;47345;52.334;10.392;2024-02-16T11:37:45;4.10;;;2.40;;
61477;SDS011;47345;52.334;10.392;2024-02-16T11:40:16;5.70;;;2.40;;
61477;SDS011;47345;52.334;10.392;2024-02-16T11:42:47;4.50;;;2.30;;
61477;SDS011;47345;52.334;10.392;2024-02-16T11:45:19;4.00;;;2.40;;
61477;SDS011;47345;52.334;10.392;2024-02-16T11:47:50;2.60;;;2.20;;
61477;SDS011;47345;52.334;10.392;2024-02-16T11:50:31;4.20;;;2.30;;
61477;SDS011;47345;52.334;10.392;2024-02-16T11:53:01;4.50;;;2.60;;
61477;SDS011;47345;52.334;10.392;2024-02-16T11:55:32;7.20;;;2.70;;
61477;SDS011;47345;52.334;10.392;2024-02-16T11:58:03;4.60;;;2.50;;
61477;SDS011;47345;52.334;10.392;2024-02-16T12:00:33;5.10;;;2.50;;
61477;SDS011;47345;52.334;10.392;2024-02-16T12:03:04;9.30;;;2.60;;
61477;SDS011;47345;52.334;10.392;2024-02-16T12:05:35;3.00;;;2.40;;
61477;SDS011;47345;52.334;10.392;2024-02-16T12:08:07;4.40;;;2.50;;
61477;SDS011;47345;52.334;10.392;2024-02-16T12:10:37;3.40;;;2.40;;
61477;SDS011;47345;52.334;10.392;2024-02-16T12:13:07;3.80;;;2.40;;
61477;SDS011;47345;52.334;10.392;2024-02-16T12:15:39;5.30;;;2.40;;
61477;SDS011;47345;52.334;10.392;2024-02-16T12:18:10;5.00;;;2.40;;
61477;SDS011;47345;52.334;10.392;2024-02-16T12:20:57;3.30;;;2.20;;
61477;SDS011;47345;52.334;10.392;2024-02-16T12:23:29;4.30;;;2.50;;
61477;SDS011;47345;52.334;10.392;2024-02-16T12:26:00;5.70;;;2.70;;
61477;SDS011;47345;52.334;10.392;2024-02-16T12:28:31;5.50;;;2.30;;
61477;SDS011;47345;52.334;10.392;2024-02-16T12:31:03;3.20;;;2.30;;
61477;SDS011;47345;52.334;10.392;2024-02-16T12:33:34;4.20;;;3.10;;
61477;SDS011;47345;52.334;10.392;2024-02-16T12:36:05;6.70;;;2.80;;
61477;SDS011;47345;52.334;10.392;2024-02-16T12:38:36;5.40;;;2.60;;
61477;SDS011;47345;52.334;10.392;2024-02-16T12:41:07;4.50;;;2.50;;
61477;SDS011;47345;52.334;10.392;2024-02-16T12:43:37;5.80;;;2.60;;
61477;SDS011;47345;52.334;10.392;2024-02-16T12:46:08;4.20;;;2.50;;
61477;SDS011;47345;52.334;10.392;2024-02-16T12:48:38;3.90;;;2.60;;
61477;SDS011;47345;52.334;10.392;2024-02-16T12:51:12;5.30;;;2.70;;
61477;SDS011;47345;52.334;10.392;2024-02-16T12:53:43;6.90;;;2.80;;
61477;SDS011;47345;52.334;10.392;2024-02-16T12:56:13;3.90;;;2.40;;
61477;SDS011;47345;52.334;10.392;2024-02-16T12:58:44;6.40;;;2.70;;
61477;SDS011;47345;52.334;10.392;2024-02-16T13:01:15;5.80;;;3.50;;
61477;SDS011;47345;52.334;10.392;2024-02-16T13:03:53;4.60;;;3.10;;
61477;SDS011;47345;52.334;10.392;2024-02-16T13:06:24;5.40;;;2.60;;
61477;SDS011;47345;52.334;10.392;2024-02-16T13:08:56;4.50;;;2.70;;
61477;SDS011;47345;52.334;10.392;2024-02-16T13:11:27;7.50;;;2.60;;
61477;SDS011;47345;52.334;10.392;2024-02-16T13:13:58;3.80;;;2.50;;
61477;SDS011;47345;52.334;10.392;2024-02-16T13:16:28;5.20;;;2.40;;
61477;SDS011;47345;52.334;10.392;2024-02-16T13:18:59;4.80;;;2.40;;
61477;SDS011;47345;52.334;10.392;2024-02-16T13:21:31;3.10;;;2.40;;
61477;SDS011;47345;52.334;10.392;2024-02-16T13:24:02;4.00;;;2.40;;
61477;SDS011;47345;52.334;10.392;2024-02-16T13:26:34;3.40;;;2.30;;
61477;SDS011;47345;52.334;10.392;2024-02-16T13:29:05;3.30;;;2.40;;
61477;SDS011;47345;52.334;10.392;2024-02-16T13:31:38;4.60;;;2.50;;
61477;SDS011;47345;52.334;10.392;2024-02-16T13:34:10;4.80;;;2.90;;
61477;SDS011;47345;52.334;10.392;2024-02-16T13:36:42;4.60;;;3.00;;
61477;SDS011;47345;52.334;10.392;2024-02-16T13:39:13;9.30;;;4.40;;
61477;SDS011;47345;52.334;10.392;2024-02-16T13:41:45;4.70;;;2.80;;
61477;SDS011;47345;52.334;10.392;2024-02-16T13:44:16;5.70;;;2.90;;
61477;SDS011;47345;52.334;10.392;2024-02-16T13:46:46;4.40;;;3.00;;
61477;SDS011;47345;52.334;10.392;2024-02-16T13:49:17;6.10;;;2.70;;
61477;SDS011;47345;52.334;10.392;2024-02-16T13:51:47;6.20;;;2.80;;
61477;SDS011;47345;52.334;10.392;2024-02-16T13:54:18;3.50;;;2.50;;
61477;SDS011;47345;52.334;10.392;2024-02-16T13:56:51;6.20;;;2.70;;
61477;SDS011;47345;52.334;10.392;2024-02-16T13:59:22;10.40;;;2.90;;
61477;SDS011;47345;52.334;10.392;2024-02-16T14:01:52;3.90;;;2.40;;
61477;SDS011;47345;52.334;10.392;2024-02-16T14:04:24;5.00;;;3.00;;
61477;SDS011;47345;52.334;10.392;2024-02-16T14:06:55;5.20;;;2.90;;
61477;SDS011;47345;52.334;10.392;2024-02-16T14:09:26;4.00;;;2.90;;
61477;SDS011;47345;52.334;10.392;2024-02-16T14:12:01;9.40;;;2.90;;
61477;SDS011;47345;52.334;10.392;2024-02-16T14:14:32;7.20;;;2.80;;
61477;SDS011;47345;52.334;10.392;2024-02-16T14:17:05;8.60;;;3.20;;
61477;SDS011;47345;52.334;10.392;2024-02-16T14:19:36;8.30;;;4.00;;
61477;SDS011;47345;52.334;10.392;2024-02-16T14:22:06;5.40;;;3.20;;
61477;SDS011;47345;52.334;10.392;2024-02-16T14:24:38;8.40;;;3.20;;
61477;SDS011;47345;52.334;10.392;2024-02-16T14:27:09;8.90;;;3.30;;
61477;SDS011;47345;52.334;10.392;2024-02-16T14:29:39;6.10;;;3.30;;
61477;SDS011;47345;52.334;10.392;2024-02-16T14:32:10;10.60;;;3.30;;
61477;SDS011;47345;52.334;10.392;2024-02-16T14:34:40;7.80;;;3.30;;
61477;SDS011;47345;52.334;10.392;2024-02-16T14:37:12;5.50;;;3.00;;
61477;SDS011;47345;52.334;10.392;2024-02-16T14:39:42;8.10;;;3.60;;
61477;SDS011;47345;52.334;10.392;2024-02-16T14:42:14;6.50;;;3.40;;
61477;SDS011;47345;52.334;10.392;2024-02-16T14:44:45;7.60;;;3.40;;
61477;SDS011;47345;52.334;10.392;2024-02-16T14:47:19;8.60;;;3.20;;
61477;SDS011;47345;52.334;10.392;2024-02-16T14:49:51;5.40;;;2.80;;
61477;SDS011;47345;52.334;10.392;2024-02-16T14:52:21;7.00;;;3.20;;
61477;SDS011;47345;52.334;10.392;2024-02-16T14:54:52;9.70;;;3.40;;
61477;SDS011;47345;52.334;10.392;2024-02-16T14:57:23;4.90;;;2.80;;